Time;durP1;ratioP1;P1;durP2;ratioP2;P2;SDS_P1;SDS_P2;PMS_P1;PMS_P2;Temp;Humidity;BMP_temperature;BMP_pressure;BME280_temperature;BME280_humidity;BME280_pressure;Samples;Min_cycle;Max_cycle;Signal;HPM_P1;HPM_P2
2022/04/03 00:01:34;;;;;;;3.88;2.00;;;11.80;66.70;;;;;;5047034;28;20493;-76
2022/04/03 00:03:59;;;;;;;3.10;1.60;;;11.70;66.60;;;;;;5028933;28;20032;-76
2022/04/03 00:06:25;;;;;;;4.18;1.85;;;11.80;66.70;;;;;;5042767;28;20024;-76
2022/04/03 00:08:50;;;;;;;3.42;1.88;;;11.70;66.50;;;;;;5048409;28;20101;-76
2022/04/03 00:11:16;;;;;;;2.78;1.70;;;11.80;66.60;;;;;;5067274;28;20035;-76
2022/04/03 00:13:42;;;;;;;2.97;1.83;;;11.80;66.60;;;;;;5067014;28;20368;-76
2022/04/03 00:16:08;;;;;;;3.83;1.73;;;11.70;66.60;;;;;;5049050;28;20199;-77
2022/04/03 00:18:34;;;;;;;3.25;1.67;;;11.80;66.70;;;;;;5066265;28;20086;-75
2022/04/03 00:21:00;;;;;;;2.83;1.60;;;11.70;66.70;;;;;;5048618;28;20036;-75
2022/04/03 00:23:26;;;;;;;3.30;1.75;;;11.80;66.70;;;;;;5066502;28;20113;-76
2022/04/03 00:25:52;;;;;;;3.28;1.77;;;11.70;66.60;;;;;;5048355;28;20028;-76
2022/04/03 00:28:18;;;;;;;3.78;1.70;;;11.70;66.60;;;;;;5048155;28;20082;-76
2022/04/03 00:30:44;;;;;;;3.25;1.83;;;11.70;66.60;;;;;;5046826;28;20749;-75
2022/04/03 00:33:11;;;;;;;2.90;1.63;;;11.80;66.70;;;;;;5066342;28;20061;-75
2022/04/03 00:35:37;;;;;;;2.70;1.65;;;11.70;66.60;;;;;;5048604;28;20029;-76
2022/04/03 00:38:03;;;;;;;3.42;1.73;;;11.80;66.70;;;;;;5047958;28;20029;-76
2022/04/03 00:40:28;;;;;;;3.72;1.83;;;11.70;66.60;;;;;;5047858;28;20059;-76
2022/04/03 00:42:54;;;;;;;4.38;2.00;;;11.70;66.70;;;;;;5047629;28;20033;-75
2022/04/03 00:45:20;;;;;;;3.30;1.70;;;11.70;66.60;;;;;;5048286;28;20029;-76
2022/04/03 00:47:48;;;;;;;3.33;1.80;;;11.70;66.60;;;;;;5065578;28;20075;-76
2022/04/03 00:50:15;;;;;;;3.40;1.90;;;11.70;66.60;;;;;;5047917;28;20032;-74
2022/04/03 00:52:41;;;;;;;3.42;1.80;;;11.70;66.70;;;;;;5066436;28;20740;-75
2022/04/03 00:55:07;;;;;;;3.78;1.83;;;11.70;66.60;;;;;;5047851;28;20127;-75
2022/04/03 00:57:34;;;;;;;3.38;1.75;;;11.70;66.70;;;;;;5047086;28;20082;-76
2022/04/03 00:59:59;;;;;;;3.92;2.08;;;11.70;66.70;;;;;;5047416;28;20043;-76
2022/04/03 01:02:26;;;;;;;3.08;1.70;;;11.70;66.60;;;;;;5065932;28;20032;-76
2022/04/03 01:04:51;;;;;;;3.50;1.80;;;11.70;66.70;;;;;;5064708;28;20046;-74
2022/04/03 01:07:18;;;;;;;3.17;1.73;;;11.60;66.50;;;;;;5047529;28;20020;-76
2022/04/03 01:09:44;;;;;;;3.03;1.80;;;11.70;66.70;;;;;;5063379;28;20044;-75
2022/04/03 01:12:10;;;;;;;2.90;1.80;;;11.70;66.60;;;;;;5065499;28;20093;-76
2022/04/03 01:14:45;;;;;;;3.08;1.80;;;11.70;66.60;;;;;;5047278;28;20551;-75
2022/04/03 01:17:13;;;;;;;3.35;1.90;;;11.70;66.70;;;;;;5064843;28;20028;-76
2022/04/03 01:19:39;;;;;;;4.72;2.15;;;11.70;66.70;;;;;;5064763;28;20035;-76
2022/04/03 01:22:05;;;;;;;3.38;1.85;;;11.70;66.70;;;;;;5065203;28;20036;-74
2022/04/03 01:24:31;;;;;;;3.17;1.90;;;11.70;66.70;;;;;;5065159;28;20036;-76
2022/04/03 01:26:57;;;;;;;2.97;1.70;;;11.70;66.60;;;;;;5064783;28;20028;-76
2022/04/03 01:29:26;;;;;;;3.42;1.92;;;11.70;66.60;;;;;;5047306;28;20020;-76
2022/04/03 01:31:53;;;;;;;4.07;2.00;;;11.70;66.70;;;;;;5065191;28;20480;-75
2022/04/03 01:34:20;;;;;;;3.67;2.10;;;11.70;66.70;;;;;;5065077;28;20036;-77
2022/04/03 01:36:47;;;;;;;3.65;1.92;;;11.70;67.20;;;;;;5064079;28;20055;-75
2022/04/03 01:39:12;;;;;;;4.22;2.20;;;11.70;66.70;;;;;;5046713;28;20055;-75
2022/04/03 01:41:42;;;;;;;3.28;1.98;;;11.70;66.70;;;;;;5046377;28;20020;-76
2022/04/03 01:44:09;;;;;;;3.78;1.95;;;11.70;66.70;;;;;;5057704;28;20041;-76
2022/04/03 01:46:39;;;;;;;5.30;2.08;;;11.70;66.70;;;;;;5046507;28;20084;-75
2022/04/03 01:49:06;;;;;;;3.28;1.90;;;11.70;66.60;;;;;;5046582;28;20025;-76
2022/04/03 01:51:32;;;;;;;3.85;1.95;;;11.70;66.70;;;;;;5046832;28;20029;-76
2022/04/03 01:53:59;;;;;;;3.80;1.90;;;11.70;66.70;;;;;;5063754;28;20033;-76
2022/04/03 01:56:25;;;;;;;3.28;1.70;;;11.70;66.70;;;;;;5044625;28;20029;-76
2022/04/03 01:58:50;;;;;;;4.10;2.10;;;11.70;66.70;;;;;;5061396;28;20089;-74
2022/04/03 02:01:16;;;;;;;3.85;1.98;;;11.70;66.70;;;;;;5046535;28;20114;-76
2022/04/03 02:03:41;;;;;;;4.40;2.00;;;11.60;66.60;;;;;;5046650;28;20035;-77
2022/04/03 02:06:07;;;;;;;3.38;1.90;;;11.60;66.60;;;;;;5064053;28;20446;-75
2022/04/03 02:08:33;;;;;;;3.95;2.15;;;11.60;66.60;;;;;;5064632;28;20020;-76
2022/04/03 02:10:58;;;;;;;3.58;1.90;;;11.70;66.70;;;;;;5046622;28;20534;-75
2022/04/03 02:13:24;;;;;;;3.28;2.03;;;11.70;66.70;;;;;;5046529;28;20033;-76
2022/04/03 02:15:50;;;;;;;2.97;1.73;;;11.60;66.60;;;;;;5045738;28;20605;-75
2022/04/03 02:18:15;;;;;;;3.30;2.03;;;11.70;66.70;;;;;;5063921;28;20047;-76
2022/04/03 02:20:41;;;;;;;3.75;2.00;;;11.70;66.70;;;;;;5046356;28;20029;-75
2022/04/03 02:23:07;;;;;;;3.80;1.88;;;11.70;66.70;;;;;;5046598;28;20136;-75
2022/04/03 02:25:32;;;;;;;3.60;2.03;;;11.60;66.60;;;;;;5046438;28;20029;-76
2022/04/03 02:27:59;;;;;;;4.20;2.20;;;11.70;66.70;;;;;;5063929;28;20157;-76
2022/04/03 02:30:25;;;;;;;3.95;2.08;;;11.60;66.60;;;;;;5035784;28;20057;-75
2022/04/03 02:32:51;;;;;;;4.07;2.05;;;11.70;66.70;;;;;;5043024;28;20040;-76
2022/04/03 02:35:17;;;;;;;3.42;1.90;;;11.60;66.60;;;;;;5064264;28;20071;-76
2022/04/03 02:37:43;;;;;;;4.03;2.33;;;11.50;66.60;;;;;;5057454;28;20025;-76
2022/04/03 02:40:11;;;;;;;4.18;2.30;;;11.70;66.70;;;;;;5059752;28;20396;-76
2022/04/03 02:42:37;;;;;;;3.40;2.00;;;11.60;66.60;;;;;;5063901;28;20039;-76
2022/04/03 02:45:05;;;;;;;4.32;2.20;;;11.70;66.80;;;;;;5043500;28;20028;-76
2022/04/03 02:47:32;;;;;;;3.85;2.38;;;11.60;66.70;;;;;;5063788;28;20048;-75
2022/04/03 02:49:57;;;;;;;4.13;2.28;;;11.70;66.70;;;;;;5046308;28;20518;-76
2022/04/03 02:52:22;;;;;;;3.33;1.90;;;11.60;66.60;;;;;;5064394;28;20072;-77
2022/04/03 02:54:49;;;;;;;4.13;2.22;;;11.70;66.70;;;;;;5049727;28;20031;-75
2022/04/03 02:57:16;;;;;;;3.45;2.13;;;11.60;66.60;;;;;;5067341;28;20067;-77
2022/04/03 02:59:42;;;;;;;3.63;2.10;;;11.60;66.60;;;;;;5067732;28;20111;-75
2022/04/03 03:02:08;;;;;;;3.83;2.10;;;11.70;66.70;;;;;;5067761;28;20031;-76
2022/04/03 03:04:37;;;;;;;2.83;1.80;;;11.60;66.70;;;;;;5067439;28;20033;-77
2022/04/03 03:07:04;;;;;;;3.72;2.10;;;11.60;66.70;;;;;;5049792;28;20020;-75
2022/04/03 03:09:29;;;;;;;4.57;2.30;;;11.60;66.70;;;;;;5049873;28;20039;-76
2022/04/03 03:11:55;;;;;;;4.45;2.08;;;11.60;66.70;;;;;;5050149;28;20036;-75
2022/04/03 03:14:21;;;;;;;3.55;2.17;;;11.60;66.70;;;;;;5049864;28;20031;-76
2022/04/03 03:16:47;;;;;;;3.38;2.05;;;11.60;66.70;;;;;;5049393;28;20060;-75
2022/04/03 03:19:12;;;;;;;3.95;2.10;;;11.60;66.70;;;;;;5049572;28;20145;-76
2022/04/03 03:21:38;;;;;;;4.53;2.20;;;11.60;66.70;;;;;;5067557;28;20224;-74
2022/04/03 03:24:04;;;;;;;3.65;2.08;;;11.60;66.70;;;;;;5068183;28;20765;-76
2022/04/03 03:26:30;;;;;;;3.40;2.17;;;11.60;66.70;;;;;;5067508;28;20090;-76
2022/04/03 03:28:55;;;;;;;3.80;2.08;;;11.60;66.70;;;;;;5049281;28;20039;-75
2022/04/03 03:31:21;;;;;;;3.75;2.10;;;11.60;66.70;;;;;;5067640;28;20111;-77
2022/04/03 03:33:47;;;;;;;4.00;2.28;;;11.60;66.70;;;;;;5067447;28;20033;-76
2022/04/03 03:36:13;;;;;;;3.40;1.90;;;11.60;66.70;;;;;;5049096;28;20078;-76
2022/04/03 03:38:38;;;;;;;3.70;2.10;;;11.70;66.80;;;;;;5049205;28;20040;-76
2022/04/03 03:41:04;;;;;;;3.40;2.10;;;11.60;66.70;;;;;;5067227;28;20098;-76
2022/04/03 03:43:29;;;;;;;3.63;2.10;;;11.60;66.70;;;;;;5048950;28;20104;-76
2022/04/03 03:45:56;;;;;;;3.38;1.90;;;11.60;66.80;;;;;;5052072;28;20112;-76
2022/04/03 03:48:22;;;;;;;3.95;2.00;;;11.60;66.80;;;;;;5031175;28;20021;-76
2022/04/03 03:50:48;;;;;;;3.42;2.17;;;11.60;66.70;;;;;;5049132;28;20024;-77
2022/04/03 03:53:13;;;;;;;4.53;2.10;;;11.60;66.80;;;;;;5049042;28;20020;-74
2022/04/03 03:55:39;;;;;;;3.97;2.30;;;11.60;66.80;;;;;;5049025;28;20032;-76
2022/04/03 03:58:04;;;;;;;4.10;2.10;;;11.60;66.70;;;;;;5048753;28;20103;-75
2022/04/03 04:00:30;;;;;;;3.53;1.83;;;11.60;66.70;;;;;;5048431;28;20111;-75
2022/04/03 04:02:56;;;;;;;3.53;1.90;;;11.60;66.80;;;;;;5048888;28;20021;-75
2022/04/03 04:05:22;;;;;;;4.13;2.20;;;11.60;66.70;;;;;;5066563;28;20098;-76
2022/04/03 04:07:48;;;;;;;3.83;2.00;;;11.60;66.70;;;;;;5066520;28;20055;-75
2022/04/03 04:10:16;;;;;;;4.85;2.25;;;11.60;66.80;;;;;;5049203;28;20025;-76
2022/04/03 04:12:43;;;;;;;4.07;2.30;;;11.60;66.70;;;;;;5048371;28;20058;-76
2022/04/03 04:15:10;;;;;;;4.60;2.00;;;11.60;66.70;;;;;;5048592;28;20028;-76
2022/04/03 04:17:40;;;;;;;4.40;2.20;;;11.60;66.80;;;;;;5047580;28;20021;-76
2022/04/03 04:20:08;;;;;;;4.47;2.42;;;11.60;66.70;;;;;;5034501;28;20046;-76
2022/04/03 04:22:33;;;;;;;4.05;2.05;;;11.60;66.70;;;;;;5066292;28;20052;-74
2022/04/03 04:24:59;;;;;;;3.95;2.20;;;11.60;66.80;;;;;;5048401;28;20025;-75
2022/04/03 04:27:24;;;;;;;4.55;2.03;;;11.60;66.80;;;;;;5066655;28;20063;-76
2022/04/03 04:29:50;;;;;;;3.63;1.95;;;11.60;66.80;;;;;;5048527;28;20035;-76
2022/04/03 04:32:16;;;;;;;3.95;2.20;;;11.60;66.70;;;;;;5048802;28;20029;-76
2022/04/03 04:34:41;;;;;;;4.07;2.20;;;11.60;66.80;;;;;;5048545;28;20178;-76
2022/04/03 04:37:07;;;;;;;3.35;2.05;;;11.60;66.80;;;;;;5047296;28;20027;-76
2022/04/03 04:39:33;;;;;;;4.22;2.20;;;11.60;66.70;;;;;;5034872;28;20883;-75
2022/04/03 04:41:58;;;;;;;4.13;2.30;;;11.60;66.70;;;;;;5065860;28;20067;-77
2022/04/03 04:44:24;;;;;;;4.97;2.17;;;11.60;66.70;;;;;;5066314;28;20024;-76
2022/04/03 04:46:49;;;;;;;4.50;2.40;;;11.60;66.70;;;;;;5047207;28;20090;-76
2022/04/03 04:49:16;;;;;;;3.72;2.20;;;11.50;66.70;;;;;;5065841;28;20025;-76
2022/04/03 04:51:42;;;;;;;3.58;2.03;;;11.50;66.70;;;;;;5048111;28;20073;-75
2022/04/03 04:54:08;;;;;;;4.35;2.25;;;11.60;66.70;;;;;;5048481;28;20028;-75
2022/04/03 04:56:35;;;;;;;4.13;2.20;;;11.60;66.80;;;;;;5065827;28;20032;-75
2022/04/03 04:59:01;;;;;;;3.38;1.90;;;11.60;66.80;;;;;;5048159;28;20044;-74
2022/04/03 05:01:26;;;;;;;4.18;2.08;;;11.60;66.80;;;;;;5047700;28;20138;-76
2022/04/03 05:03:52;;;;;;;3.50;2.00;;;11.60;66.70;;;;;;5047854;28;20151;-75
2022/04/03 05:06:17;;;;;;;4.05;2.08;;;11.60;66.80;;;;;;5047897;28;20066;-76
2022/04/03 05:08:44;;;;;;;4.25;2.63;;;11.50;66.70;;;;;;5047714;28;20028;-76
2022/04/03 05:11:11;;;;;;;4.15;2.20;;;11.50;66.70;;;;;;5048316;28;20052;-76
2022/04/03 05:13:37;;;;;;;3.92;2.28;;;11.60;66.70;;;;;;5048048;28;20032;-74
2022/04/03 05:16:03;;;;;;;5.88;2.35;;;11.50;66.70;;;;;;5064407;28;20036;-75
2022/04/03 05:18:29;;;;;;;5.82;2.50;;;11.60;66.70;;;;;;5047121;28;20042;-77
2022/04/03 05:20:54;;;;;;;3.58;2.10;;;11.60;66.70;;;;;;5047985;28;20029;-75
2022/04/03 05:23:20;;;;;;;3.72;2.28;;;11.50;66.60;;;;;;5065923;28;20509;-74
2022/04/03 05:25:45;;;;;;;4.05;2.40;;;11.60;66.80;;;;;;5046404;28;20036;-75
2022/04/03 05:28:11;;;;;;;4.30;2.28;;;11.60;66.70;;;;;;5064925;28;20499;-76
2022/04/03 05:30:37;;;;;;;3.45;2.05;;;11.50;66.70;;;;;;5064712;28;20077;-76
2022/04/03 05:33:02;;;;;;;4.22;2.30;;;11.50;66.70;;;;;;5047540;28;20544;-75
2022/04/03 05:35:28;;;;;;;4.00;2.28;;;11.50;66.60;;;;;;5063943;28;20029;-75
2022/04/03 05:37:54;;;;;;;4.45;2.33;;;11.60;66.60;;;;;;5065212;28;20028;-76
2022/04/03 05:40:20;;;;;;;4.07;2.20;;;11.60;66.60;;;;;;5064256;28;20036;-76
2022/04/03 05:42:46;;;;;;;4.22;2.25;;;11.60;66.60;;;;;;5027869;28;20487;-75
2022/04/03 05:45:12;;;;;;;4.28;2.10;;;11.60;66.60;;;;;;5039643;28;20839;-77
2022/04/03 05:47:38;;;;;;;4.88;2.47;;;11.60;66.60;;;;;;5047094;28;20020;-76
2022/04/03 05:50:05;;;;;;;4.07;2.28;;;11.60;66.60;;;;;;5047437;28;20112;-76
2022/04/03 05:52:42;;;;;;;4.80;2.33;;;11.60;66.60;;;;;;5065405;28;20039;-75
2022/04/03 05:55:08;;;;;;;3.78;2.33;;;11.60;66.50;;;;;;5047552;28;20028;-75
2022/04/03 05:57:35;;;;;;;4.32;2.30;;;11.60;66.60;;;;;;5037188;28;20028;-75
2022/04/03 06:00:00;;;;;;;4.55;2.38;;;11.60;66.50;;;;;;5027649;28;20107;-76
2022/04/03 06:02:26;;;;;;;3.78;2.15;;;11.60;66.40;;;;;;5029996;28;20923;-74
2022/04/03 06:04:52;;;;;;;3.88;2.10;;;11.60;66.50;;;;;;5064950;28;20086;-75
2022/04/03 06:07:17;;;;;;;3.83;2.10;;;11.60;66.40;;;;;;5063377;28;20376;-74
2022/04/03 06:09:43;;;;;;;4.43;2.33;;;11.60;66.40;;;;;;5065092;28;20028;-77
2022/04/03 06:12:10;;;;;;;4.15;2.38;;;11.60;66.40;;;;;;5071816;28;20392;-76
2022/04/03 06:14:36;;;;;;;3.40;2.08;;;11.70;66.30;;;;;;5041974;28;20074;-75
2022/04/03 06:17:01;;;;;;;3.92;2.05;;;11.60;66.30;;;;;;5050846;28;20032;-76
2022/04/03 06:19:29;;;;;;;5.35;2.42;;;11.70;66.40;;;;;;5058634;28;20110;-75
2022/04/03 06:21:54;;;;;;;3.88;2.13;;;11.60;66.40;;;;;;5064904;28;20098;-76
2022/04/03 06:24:20;;;;;;;3.38;1.90;;;11.70;66.30;;;;;;5047175;28;20021;-76
2022/04/03 06:26:45;;;;;;;4.25;2.13;;;11.70;66.30;;;;;;5046388;28;20052;-75
2022/04/03 06:29:12;;;;;;;4.80;2.20;;;11.80;66.30;;;;;;5026848;28;20506;-75
2022/04/03 06:31:37;;;;;;;3.40;2.20;;;11.70;66.20;;;;;;5027061;28;20028;-75
2022/04/03 06:34:03;;;;;;;4.47;2.35;;;11.80;66.30;;;;;;5027022;28;20033;-77
2022/04/03 06:36:28;;;;;;;4.50;2.25;;;11.80;66.20;;;;;;5045255;28;20036;-77
2022/04/03 06:38:54;;;;;;;4.65;2.30;;;11.80;66.30;;;;;;5044577;28;20025;-76
2022/04/03 06:41:19;;;;;;;4.57;2.15;;;11.80;66.20;;;;;;5065199;28;20024;-75
2022/04/03 06:43:45;;;;;;;4.78;2.45;;;11.80;66.20;;;;;;5043487;28;20075;-77
2022/04/03 06:46:11;;;;;;;4.72;2.10;;;11.70;66.10;;;;;;5044686;28;20025;-76
2022/04/03 06:48:36;;;;;;;4.40;2.42;;;11.80;66.20;;;;;;5026650;28;20446;-75
2022/04/03 06:51:02;;;;;;;4.10;2.20;;;11.80;66.20;;;;;;5034360;28;20025;-75
2022/04/03 06:53:27;;;;;;;4.75;2.17;;;11.80;66.20;;;;;;5063410;28;20036;-75
2022/04/03 06:55:53;;;;;;;3.67;2.00;;;11.80;66.20;;;;;;5046650;28;20029;-76
2022/04/03 06:58:18;;;;;;;3.67;2.10;;;11.80;66.20;;;;;;5063457;28;20025;-76
2022/04/03 07:00:44;;;;;;;4.70;2.03;;;11.80;66.20;;;;;;5046661;28;20069;-76
2022/04/03 07:03:09;;;;;;;4.32;2.20;;;11.80;66.20;;;;;;5038406;28;20111;-76
2022/04/03 07:05:35;;;;;;;4.95;2.10;;;11.80;66.00;;;;;;5049489;28;20486;-76
2022/04/03 07:08:00;;;;;;;4.50;2.15;;;11.90;66.20;;;;;;5064311;28;20025;-76
2022/04/03 07:10:26;;;;;;;4.07;2.13;;;11.80;66.00;;;;;;5039150;28;20853;-75
2022/04/03 07:12:54;;;;;;;4.45;2.15;;;11.90;66.70;;;;;;5062194;28;20123;-76
2022/04/03 07:15:20;;;;;;;4.07;2.17;;;11.90;66.00;;;;;;5051559;28;20602;-76
2022/04/03 07:17:46;;;;;;;3.60;2.00;;;12.00;65.90;;;;;;5062150;28;20024;-76
2022/04/03 07:20:14;;;;;;;4.78;2.20;;;12.00;65.80;;;;;;5039202;28;20182;-76
2022/04/03 07:22:44;;;;;;;4.35;2.20;;;12.10;65.70;;;;;;5038322;28;20025;-77
2022/04/03 07:25:11;;;;;;;3.45;2.20;;;12.10;65.50;;;;;;5039976;28;20677;-75
2022/04/03 07:27:37;;;;;;;4.20;2.00;;;12.20;65.50;;;;;;5035567;28;20028;-76
2022/04/03 07:30:04;;;;;;;5.72;2.20;;;12.20;65.40;;;;;;5054323;28;20453;-77
2022/04/03 07:32:29;;;;;;;3.15;1.90;;;12.20;65.20;;;;;;5034650;28;20627;-76
2022/04/03 07:34:55;;;;;;;3.75;1.88;;;12.20;65.20;;;;;;5038641;28;20036;-77
2022/04/03 07:37:20;;;;;;;3.17;1.85;;;12.30;65.10;;;;;;5040975;28;20491;-75
2022/04/03 07:39:46;;;;;;;3.20;1.90;;;12.30;65.20;;;;;;5034799;28;20068;-76
2022/04/03 07:42:12;;;;;;;3.97;2.08;;;12.30;65.10;;;;;;5041666;28;20588;-75
2022/04/03 07:44:37;;;;;;;3.85;2.10;;;12.40;65.10;;;;;;5045210;28;20036;-76
2022/04/03 07:47:03;;;;;;;3.30;1.92;;;12.40;65.10;;;;;;5044855;28;20025;-76
2022/04/03 07:49:29;;;;;;;3.65;2.05;;;12.40;65.00;;;;;;5058059;28;20016;-76
2022/04/03 07:51:54;;;;;;;3.38;1.90;;;12.40;65.00;;;;;;5045015;28;20035;-76
2022/04/03 07:54:20;;;;;;;3.00;1.73;;;12.40;64.80;;;;;;5051085;28;20020;-75
2022/04/03 07:56:45;;;;;;;4.38;2.03;;;12.50;64.90;;;;;;5049019;28;20508;-76
2022/04/03 07:59:11;;;;;;;3.53;1.90;;;12.40;64.90;;;;;;5048247;28;20043;-74
2022/04/03 08:01:36;;;;;;;3.53;1.88;;;12.50;64.90;;;;;;5069530;28;20028;-75
2022/04/03 08:04:02;;;;;;;3.38;1.77;;;12.50;64.90;;;;;;5050615;28;20021;-75
2022/04/03 08:06:28;;;;;;;3.00;1.60;;;12.50;64.90;;;;;;5051411;28;20388;-74
2022/04/03 08:08:53;;;;;;;4.20;1.98;;;12.50;64.90;;;;;;5048978;28;20535;-75
2022/04/03 08:11:19;;;;;;;2.85;1.90;;;12.50;64.90;;;;;;5047117;28;20039;-76
2022/04/03 08:13:45;;;;;;;3.63;1.70;;;12.60;65.40;;;;;;5051750;28;20028;-74
2022/04/03 08:16:11;;;;;;;4.07;2.13;;;12.60;64.80;;;;;;5036987;28;20029;-76
2022/04/03 08:18:36;;;;;;;3.13;1.73;;;12.60;64.70;;;;;;5049256;28;20060;-76
2022/04/03 08:21:03;;;;;;;3.42;1.67;;;12.60;64.70;;;;;;5049152;28;20025;-76
2022/04/03 08:23:28;;;;;;;4.97;2.00;;;12.70;64.70;;;;;;5037907;28;20031;-75
2022/04/03 08:25:54;;;;;;;3.38;1.70;;;12.70;64.80;;;;;;5060415;28;20135;-74
2022/04/03 08:28:20;;;;;;;3.58;1.63;;;12.60;64.60;;;;;;5067075;28;20036;-75
2022/04/03 08:30:46;;;;;;;4.15;1.90;;;12.70;64.70;;;;;;5049651;28;20116;-75
2022/04/03 08:33:11;;;;;;;2.90;1.63;;;12.70;64.70;;;;;;5048295;28;20147;-76
2022/04/03 08:35:38;;;;;;;2.35;1.50;;;12.70;64.70;;;;;;5050287;28;20031;-75
2022/04/03 08:38:05;;;;;;;2.40;1.60;;;12.60;64.80;;;;;;5048043;28;20035;-75
2022/04/03 08:40:31;;;;;;;3.92;1.85;;;12.60;64.80;;;;;;5050153;28;20042;-74
2022/04/03 08:42:57;;;;;;;3.50;1.80;;;12.60;64.80;;;;;;5038275;28;20036;-74
2022/04/03 08:45:24;;;;;;;3.47;1.92;;;12.50;64.90;;;;;;5062369;28;20043;-76
2022/04/03 08:47:54;;;;;;;3.10;1.60;;;12.50;65.10;;;;;;5045156;28;20025;-75
2022/04/03 08:50:27;;;;;;;3.75;1.48;;;12.40;65.10;;;;;;5045395;28;20116;-75
2022/04/03 08:52:54;;;;;;;3.28;1.60;;;12.40;65.40;;;;;;5039392;28;20037;-76
2022/04/03 08:55:21;;;;;;;2.67;1.60;;;12.50;65.50;;;;;;5041745;28;20045;-75
2022/04/03 08:57:47;;;;;;;3.60;1.60;;;12.40;65.40;;;;;;5058594;28;20028;-76
2022/04/03 09:00:14;;;;;;;3.35;1.65;;;12.40;65.40;;;;;;5049578;28;20028;-76
2022/04/03 09:02:40;;;;;;;3.63;1.67;;;12.40;65.30;;;;;;5049919;28;20036;-75
2022/04/03 09:05:06;;;;;;;3.33;1.52;;;12.40;65.30;;;;;;5048430;28;20028;-76
2022/04/03 09:07:32;;;;;;;3.08;1.52;;;12.40;65.30;;;;;;5049801;28;20778;-75
2022/04/03 09:10:06;;;;;;;4.05;1.88;;;12.40;65.30;;;;;;5067287;28;20028;-74
2022/04/03 09:12:32;;;;;;;2.92;1.52;;;12.30;65.20;;;;;;5068241;28;20046;-77
2022/04/03 09:14:58;;;;;;;4.32;1.80;;;12.40;65.30;;;;;;5056646;28;20029;-76
2022/04/03 09:17:33;;;;;;;2.35;1.35;;;12.40;65.20;;;;;;5038933;28;20036;-76
2022/04/03 09:20:05;;;;;;;2.65;1.50;;;12.40;65.00;;;;;;5030300;28;20033;-76
2022/04/03 09:22:33;;;;;;;3.08;1.40;;;12.50;64.90;;;;;;5037669;28;20024;-76
2022/04/03 09:24:59;;;;;;;2.13;1.30;;;12.50;64.80;;;;;;5037166;28;20079;-77
2022/04/03 09:27:25;;;;;;;3.33;1.45;;;12.60;64.70;;;;;;5050716;28;20048;-76
2022/04/03 09:30:01;;;;;;;2.40;1.40;;;12.60;64.70;;;;;;5060845;28;20068;-76
2022/04/03 09:32:27;;;;;;;3.60;1.45;;;12.60;64.60;;;;;;5050493;28;20522;-76
2022/04/03 09:34:56;;;;;;;3.20;1.58;;;12.60;64.60;;;;;;5035768;28;20112;-76
2022/04/03 09:37:22;;;;;;;3.22;1.50;;;12.50;64.60;;;;;;5043202;28;20028;-76
2022/04/03 09:39:48;;;;;;;3.10;1.60;;;12.60;64.70;;;;;;5067768;28;20800;-76
2022/04/03 09:42:15;;;;;;;3.35;1.60;;;12.60;64.70;;;;;;5043790;28;20081;-76
2022/04/03 09:44:43;;;;;;;2.85;1.60;;;12.60;64.60;;;;;;5034033;28;20021;-76
2022/04/03 09:47:26;;;;;;;3.33;1.60;;;12.60;64.50;;;;;;5063937;28;20032;-76
2022/04/03 09:49:53;;;;;;;3.40;1.73;;;12.70;64.50;;;;;;5052201;28;20466;-77
2022/04/03 09:52:37;;;;;;;3.42;1.50;;;12.70;64.50;;;;;;5041935;28;20114;-76
2022/04/03 09:55:13;;;;;;;2.60;1.40;;;12.60;64.50;;;;;;5048361;28;20111;-78
2022/04/03 09:57:38;;;;;;;4.38;1.58;;;12.60;64.50;;;;;;5067843;28;20028;-74
2022/04/03 10:00:05;;;;;;;2.53;1.20;;;12.60;64.60;;;;;;5052561;28;20035;-76
2022/04/03 10:02:32;;;;;;;2.33;1.30;;;12.50;64.90;;;;;;5053100;28;20036;-76
2022/04/03 10:04:58;;;;;;;3.50;1.42;;;12.50;64.80;;;;;;5053174;28;20027;-76
2022/04/03 10:07:24;;;;;;;2.90;1.30;;;12.50;65.00;;;;;;5070436;28;20435;-76
2022/04/03 10:09:51;;;;;;;4.15;1.60;;;12.40;65.10;;;;;;5070710;28;20029;-75
2022/04/03 10:12:19;;;;;;;3.92;1.88;;;12.40;65.20;;;;;;5071332;28;20024;-75
2022/04/03 10:14:47;;;;;;;5.70;1.50;;;12.40;65.80;;;;;;5053326;28;20025;-76
2022/04/03 10:17:13;;;;;;;3.67;1.20;;;12.40;65.40;;;;;;5052763;28;20068;-76
2022/04/03 10:19:39;;;;;;;6.28;1.63;;;12.40;65.50;;;;;;5053130;28;20029;-76
2022/04/03 10:22:31;;;;;;;10.82;1.73;;;12.30;65.50;;;;;;5053122;28;20035;-76
2022/04/03 10:25:02;;;;;;;3.75;1.58;;;12.30;65.50;;;;;;5052945;28;20111;-76
2022/04/03 10:27:32;;;;;;;5.63;1.50;;;12.30;65.50;;;;;;5053256;28;20021;-76
2022/04/03 10:29:58;;;;;;;2.80;1.30;;;12.30;65.70;;;;;;5053159;28;20111;-76
2022/04/03 10:32:30;;;;;;;4.40;1.25;;;12.30;65.60;;;;;;5053164;28;20149;-76
2022/04/03 10:34:57;;;;;;;;;;;12.30;65.60;;;;;;5053572;28;20415;-75
2022/04/03 10:37:40;;;;;;;7.28;1.60;;;12.40;65.70;;;;;;5052814;28;20011;-75
2022/04/03 10:40:18;;;;;;;5.43;1.25;;;12.30;65.70;;;;;;5053030;28;20032;-76
2022/04/03 10:43:02;;;;;;;3.10;1.45;;;12.30;65.70;;;;;;5070825;28;20028;-76
2022/04/03 10:45:36;;;;;;;6.13;1.50;;;12.30;65.80;;;;;;5035219;28;20027;-75
2022/04/03 10:48:22;;;;;;;3.95;1.33;;;12.30;65.80;;;;;;5050448;28;20450;-74
2022/04/03 10:51:11;;;;;;;3.92;1.50;;;12.20;65.90;;;;;;5032804;28;20021;-75
2022/04/03 10:53:41;;;;;;;5.00;2.03;;;12.20;66.00;;;;;;5032985;28;20480;-75
2022/04/03 10:56:19;;;;;;;3.58;1.30;;;12.20;66.00;;;;;;5050578;28;20033;-74
2022/04/03 10:58:47;;;;;;;4.20;1.45;;;12.20;66.00;;;;;;5033039;28;20025;-77
2022/04/03 11:01:25;;;;;;;5.10;1.20;;;12.20;66.00;;;;;;5050539;28;20078;-77
2022/04/03 11:04:01;;;;;;;3.42;1.48;;;12.20;66.00;;;;;;5032773;28;20052;-75
2022/04/03 11:06:29;;;;;;;3.80;1.40;;;12.20;66.00;;;;;;5050546;28;20035;-76
2022/04/03 11:09:05;;;;;;;5.78;1.60;;;12.20;66.00;;;;;;5032443;28;20187;-76
2022/04/03 11:11:39;;;;;;;3.97;1.92;;;12.20;66.00;;;;;;5050242;28;20033;-75
2022/04/03 11:14:07;;;;;;;3.35;1.25;;;12.20;66.00;;;;;;5033108;28;20095;-75
2022/04/03 11:16:53;;;;;;;2.72;1.30;;;12.20;66.10;;;;;;5035535;28;20028;-74
2022/04/03 11:19:41;;;;;;;3.30;1.30;;;12.20;66.20;;;;;;5036710;28;20055;-77
2022/04/03 11:22:10;;;;;;;2.60;1.17;;;12.10;66.20;;;;;;5036166;28;20029;-75
2022/04/03 11:24:37;;;;;;;2.67;1.13;;;12.20;66.30;;;;;;5054254;28;20484;-75
2022/04/03 11:27:08;;;;;;;5.88;1.30;;;12.10;66.30;;;;;;5036132;28;20021;-75
2022/04/03 11:29:34;;;;;;;5.18;1.40;;;12.10;66.40;;;;;;5054296;28;20048;-74
2022/04/03 11:32:08;;;;;;;4.10;1.48;;;12.10;66.40;;;;;;5054012;28;20021;-75
2022/04/03 11:34:35;;;;;;;3.40;1.33;;;12.10;66.40;;;;;;5036206;28;20028;-76
2022/04/03 11:37:04;;;;;;;2.90;1.30;;;12.10;66.40;;;;;;5053538;28;20025;-74
2022/04/03 11:39:35;;;;;;;4.10;1.60;;;12.10;66.50;;;;;;5036280;28;20032;-75
2022/04/03 11:42:22;;;;;;;3.13;1.27;;;12.20;66.40;;;;;;5036074;28;20106;-74
2022/04/03 11:44:52;;;;;;;2.45;1.13;;;12.20;66.20;;;;;;5048298;28;20024;-75
2022/04/03 11:47:21;;;;;;;2.03;1.05;;;12.20;66.10;;;;;;5073631;28;20025;-75
2022/04/03 11:50:02;;;;;;;2.75;1.20;;;12.30;66.10;;;;;;5055940;28;20032;-74
2022/04/03 11:52:27;;;;;;;3.92;1.45;;;12.30;66.00;;;;;;5055960;28;20024;-77
2022/04/03 11:54:56;;;;;;;2.92;1.20;;;12.30;66.00;;;;;;5073438;28;20043;-74
2022/04/03 11:57:22;;;;;;;2.50;1.30;;;12.30;66.00;;;;;;5055402;28;20028;-75
2022/04/03 11:59:48;;;;;;;2.38;1.10;;;12.30;66.20;;;;;;5073777;28;20068;-77
2022/04/03 12:02:15;;;;;;;3.70;1.10;;;12.20;66.10;;;;;;5055511;28;20420;-75
2022/04/03 12:04:42;;;;;;;2.55;1.10;;;12.20;66.10;;;;;;5073417;28;20024;-77
2022/04/03 12:07:14;;;;;;;3.78;1.20;;;12.20;66.20;;;;;;5054824;28;20059;-76
2022/04/03 12:09:44;;;;;;;3.55;1.30;;;12.20;66.20;;;;;;5055639;28;20024;-75
2022/04/03 12:12:10;;;;;;;2.63;1.20;;;12.20;66.20;;;;;;5073344;28;20090;-74
2022/04/03 12:14:40;;;;;;;3.17;1.23;;;12.20;66.30;;;;;;5073230;28;20438;-73
2022/04/03 12:17:08;;;;;;;12.93;1.90;;;12.20;66.30;;;;;;5054693;28;20051;-75
2022/04/03 12:19:38;;;;;;;1999.90;286.00;;;12.10;64.70;;;;;;5073165;28;20411;-77
2022/04/03 12:22:07;;;;;;;1999.90;331.65;;;12.10;62.20;;;;;;5073484;28;20059;-78
2022/04/03 12:24:34;;;;;;;1469.35;131.27;;;11.90;61.20;;;;;;5055226;28;20024;-75
2022/04/03 12:27:15;;;;;;;1415.88;127.05;;;11.70;61.40;;;;;;5072843;28;20153;-77
2022/04/03 12:29:54;;;;;;;515.23;42.77;;;11.70;61.60;;;;;;5055321;28;20020;-76
2022/04/03 12:32:37;;;;;;;1999.90;289.98;;;11.60;61.90;;;;;;5073297;28;20480;-73
2022/04/03 12:35:07;;;;;;;750.47;63.92;;;11.60;61.30;;;;;;5072731;28;20032;-75
2022/04/03 12:37:35;;;;;;;423.15;33.65;;;11.40;59.10;;;;;;5072483;28;20031;-75
2022/04/03 12:40:05;;;;;;;264.55;20.80;;;11.20;58.80;;;;;;5054728;28;20024;-75
2022/04/03 12:42:46;;;;;;;385.38;30.08;;;11.20;59.30;;;;;;5072881;28;20055;-74
2022/04/03 12:45:17;;;;;;;447.20;30.50;;;11.30;61.80;;;;;;5039178;28;20029;-75
2022/04/03 12:48:00;;;;;;;188.65;15.30;;;11.40;59.90;;;;;;5034884;28;20400;-74